McDaniels, Kentucky
Current Conditions -  °F | °C
As of 12:58 AM on Saturday 29 Nov 2014 (Local Time) from KFTK Reporting Station
Broken Clouds Broken Clouds  
Wind Chill: 31°   Ceiling: 18000
Heat Index: 36°   Visibility: 10mi
Dew Point: 24°   Wind: 7mph
Humidity: 60%   Direction: 190°S
Pressure: 30.05"   Gusts: NA
Location:  37.61°N, 86.42°W
Report Text: KFTK 290658Z AUTO 19006KT 10SM FEW160 BKN180 02/M05 A3005 RMK AO2 SLP184 T00241047
Loading
Personal Weather Stations






























Interactive Weather Map New forecast layout! Learn more

10-Day Weather Forecast

Advertisements
Track Severe Weather on mobile